Aérodrome :
LOGIN :

S'inscrire | Disclaimer

   EN    FR    IT 

 










Légende :    VFR   VFR Marginal   IFR   IFR Intensif   IFR Très Intensif
Visi : 
Plafond : 
>= 8 km
>= 3000ft
5 à 8 km
1000 à 3000 ft
1500m à 5 km
500 à 1000 ft
800 à 1500m
200 à 500 ft
< 800m
< 200 ft
Symboles :   Orages  Brouillard  Fortes neiges  Fortes précipitations  Vent > 20 kt
SIGMETs :   Divers  Orages  Givrage  Turbulence  Onde Orograph.  Cendres Volcan.






- Altitude de l'aérodrome : 782 ft
- Code IATA : BGY


LIME - Orio al Serio International - Bergamo

DERNIER METAR :
  • 150220Z 01006KT CAVOK 02/M00 Q1012 NOSIG

METARs EXPIRÉS :
  • 150150Z 01005KT CAVOK 01/M00 Q1012 NOSIG
  • 150120Z 01005KT CAVOK 02/M01 Q1011 NOSIG
  • 150050Z VRB02KT CAVOK 02/M01 Q1011 NOSIG
  • 150020Z 01005KT CAVOK 02/M01 Q1010 NOSIG
  • 142350Z VRB03KT CAVOK 01/M01 Q1010 NOSIG

TAF TAF LIME
Valide du 15 à 00h jusqu'au 16 à 00h UTC


142300Z 1500/1524 VRB05KT CAVOK
BECMG 1507/1510 4000 BR BKN012 BKN035
TEMPO 1520/1524 DZ



MET'MAP, la Météo Aéronautique d'un coup d'oeil ! - Copyright ORBIFLY Décembre 2007 - Disclaimer

ORBIFLY MET'MAP TEAM :

Programmation & Développement : Alexandra Zaïnal
Sur une idée originale de : Baudouin d'Aumeries
Assistance à la programmation : Marc-Olivier Méhu
Soutien technique & logistique : Manuel Goepfert

Contact : metmap@orbifly.com




SOURCES & CREDITS :

   NOAA